Time;durP1;ratioP1;P1;durP2;ratioP2;P2;SDS_P1;SDS_P2;PMS_P1;PMS_P2;Temp;Humidity;BMP_temperature;BMP_pressure;BME280_temperature;BME280_humidity;BME280_pressure;Samples;Min_cycle;Max_cycle;Signal;HPM_P1;HPM_P2
2023/10/11 00:00:39;;;;;;;15.52;8.40;;;16.60;99.90;;;;;;7367945;19;20111;-67
2023/10/11 00:03:52;;;;;;;15.25;8.18;;;16.60;99.90;;;;;;7373879;19;20102;-67
2023/10/11 00:06:04;;;;;;;16.20;8.07;;;16.50;99.90;;;;;;7371142;19;20019;-67
2023/10/11 00:08:39;;;;;;;15.82;8.02;;;16.60;99.90;;;;;;7373500;19;20022;-66
2023/10/11 00:11:07;;;;;;;15.85;8.32;;;16.50;99.90;;;;;;7369857;19;20033;-67
2023/10/11 00:13:35;;;;;;;17.30;8.88;;;16.50;99.90;;;;;;7372585;19;20110;-66
2023/10/11 00:16:07;;;;;;;19.23;9.13;;;16.50;99.90;;;;;;7373383;19;20584;-62
2023/10/11 00:18:36;;;;;;;13.02;9.05;;;16.50;99.90;;;;;;7370360;19;20018;-62
2023/10/11 00:21:10;;;;;;;13.50;9.50;;;16.40;99.90;;;;;;7374557;19;20018;-67
2023/10/11 00:23:39;;;;;;;12.88;9.45;;;16.40;99.90;;;;;;7371067;19;20021;-67
2023/10/11 00:26:06;;;;;;;18.58;10.02;;;16.30;99.90;;;;;;7372886;19;20054;-66
2023/10/11 00:28:34;;;;;;;17.45;10.15;;;16.40;99.90;;;;;;7369944;19;20574;-66
2023/10/11 00:31:01;;;;;;;19.70;10.77;;;16.30;99.90;;;;;;7373616;19;20074;-63
2023/10/11 00:33:29;;;;;;;19.55;11.70;;;16.30;99.90;;;;;;7370702;19;20023;-61
2023/10/11 00:35:56;;;;;;;19.38;10.63;;;16.30;99.90;;;;;;7373734;19;20018;-66
2023/10/11 00:38:29;;;;;;;15.35;11.07;;;16.30;99.90;;;;;;7372558;19;20021;-62
2023/10/11 00:41:01;;;;;;;17.20;11.00;;;16.30;99.90;;;;;;7371666;19;20864;-66
2023/10/11 00:43:39;;;;;;;17.40;11.02;;;16.20;99.90;;;;;;7372809;19;20011;-66
2023/10/11 00:46:08;;;;;;;17.88;12.25;;;16.20;99.90;;;;;;7372912;19;20014;-66
2023/10/11 00:48:53;;;;;;;20.23;13.00;;;16.20;99.90;;;;;;7369131;19;20305;-62
2023/10/11 00:51:25;;;;;;;20.58;12.18;;;16.20;99.90;;;;;;7371796;19;20114;-64
2023/10/11 00:53:51;;;;;;;;;;;16.20;99.90;;;;;;7370640;19;20036;-63
2023/10/11 00:56:20;;;;;;;21.02;12.18;;;16.20;99.90;;;;;;7367559;19;20657;-61
2023/10/11 00:58:50;;;;;;;21.50;13.30;;;16.20;99.90;;;;;;7373696;19;22241;-62
2023/10/11 01:01:17;;;;;;;21.98;14.40;;;16.20;99.90;;;;;;7372359;19;20078;-61
2023/10/11 01:03:44;;;;;;;21.85;14.23;;;16.20;99.90;;;;;;7373145;19;20098;-62
2023/10/11 01:06:13;;;;;;;19.38;14.05;;;16.20;99.90;;;;;;7374153;19;20033;-66
2023/10/11 01:08:40;;;;;;;22.80;14.93;;;16.30;99.90;;;;;;7372190;19;20018;-65
2023/10/11 01:11:11;;;;;;;21.80;14.38;;;16.30;99.90;;;;;;7368218;19;20099;-67
2023/10/11 01:13:42;;;;;;;19.70;14.00;;;16.30;99.90;;;;;;7380493;19;20618;-66
2023/10/11 01:16:11;;;;;;;21.52;14.73;;;16.20;99.90;;;;;;7364631;19;20102;-66
2023/10/11 01:18:39;;;;;;;21.83;15.18;;;16.30;99.90;;;;;;7381106;19;20398;-66
2023/10/11 01:21:05;;;;;;;22.83;16.33;;;16.30;99.90;;;;;;7375882;19;20026;-66
2023/10/11 01:23:35;;;;;;;24.23;15.07;;;16.20;99.90;;;;;;7375332;19;20041;-66
2023/10/11 01:26:09;;;;;;;22.15;16.02;;;16.20;99.90;;;;;;7379115;19;20497;-66
2023/10/11 01:28:44;;;;;;;23.98;16.10;;;16.30;99.90;;;;;;7380124;19;20089;-63
2023/10/11 01:31:16;;;;;;;22.20;16.25;;;16.30;99.90;;;;;;7379035;19;20019;-63
2023/10/11 01:33:46;;;;;;;29.33;17.20;;;16.20;99.90;;;;;;7380165;19;20870;-62
2023/10/11 01:36:21;;;;;;;28.45;18.08;;;16.30;99.90;;;;;;7380368;19;20912;-66
2023/10/11 01:38:48;;;;;;;33.40;17.10;;;16.20;99.90;;;;;;7380816;19;20022;-66
2023/10/11 01:41:22;;;;;;;23.65;17.80;;;16.20;99.90;;;;;;7371501;19;20026;-66
2023/10/11 01:43:50;;;;;;;27.33;18.10;;;16.20;99.90;;;;;;7377293;19;20391;-62
2023/10/11 01:46:24;;;;;;;26.95;16.05;;;16.20;99.90;;;;;;7375268;19;20022;-66
2023/10/11 01:48:55;;;;;;;31.85;17.85;;;16.20;99.90;;;;;;7377187;19;20014;-66
2023/10/11 01:51:28;;;;;;;27.27;18.53;;;16.20;99.90;;;;;;7374457;19;20018;-66
2023/10/11 01:53:56;;;;;;;27.15;17.67;;;16.20;99.90;;;;;;7379237;19;20093;-66
2023/10/11 01:56:26;;;;;;;24.80;17.25;;;16.20;99.90;;;;;;7376112;19;20058;-67
2023/10/11 01:58:56;;;;;;;28.75;18.45;;;16.10;99.90;;;;;;7377526;19;20089;-66
2023/10/11 02:01:26;;;;;;;25.85;18.13;;;16.10;99.90;;;;;;7376062;19;20030;-62
2023/10/11 02:03:58;;;;;;;24.10;17.58;;;16.10;99.90;;;;;;7376238;19;20025;-62
2023/10/11 02:06:26;;;;;;;28.58;18.20;;;16.10;99.90;;;;;;7378286;19;20046;-65
2023/10/11 02:08:52;;;;;;;33.25;18.95;;;16.10;99.90;;;;;;7375107;19;20038;-62
2023/10/11 02:11:26;;;;;;;34.05;19.42;;;16.10;99.90;;;;;;7376971;19;20014;-66
2023/10/11 02:13:52;;;;;;;28.80;18.98;;;16.10;99.90;;;;;;7375871;19;20028;-66
2023/10/11 02:16:19;;;;;;;29.95;18.88;;;16.00;99.90;;;;;;7377289;19;20503;-62
2023/10/11 02:18:51;;;;;;;27.33;18.48;;;16.00;99.90;;;;;;7377144;19;20046;-65
2023/10/11 02:21:17;;;;;;;;;;;16.00;99.90;;;;;;7373464;19;20025;-61
2023/10/11 02:23:44;;;;;;;30.90;17.85;;;16.00;99.90;;;;;;7374293;19;19926;-66
2023/10/11 02:26:13;;;;;;;28.75;18.33;;;16.00;99.90;;;;;;7374819;19;20031;-65
2023/10/11 02:28:43;;;;;;;29.27;18.60;;;15.90;99.90;;;;;;7374678;19;20371;-66
2023/10/11 02:31:13;;;;;;;29.67;19.73;;;15.90;99.90;;;;;;7379705;19;21201;-66
2023/10/11 02:33:40;;;;;;;27.83;18.88;;;15.90;99.90;;;;;;7374973;19;20024;-66
2023/10/11 02:36:17;;;;;;;28.52;19.38;;;15.90;99.90;;;;;;7379050;19;20022;-65
2023/10/11 02:38:54;;;;;;;27.42;17.70;;;15.80;99.90;;;;;;7372952;19;20021;-66
2023/10/11 02:41:24;;;;;;;25.73;18.13;;;15.80;99.90;;;;;;7377436;19;20022;-65
2023/10/11 02:43:57;;;;;;;34.35;19.55;;;15.80;99.90;;;;;;7374695;19;20018;-65
2023/10/11 02:46:25;;;;;;;30.15;18.25;;;15.80;99.90;;;;;;7373595;19;20015;-66
2023/10/11 02:49:05;;;;;;;34.00;19.25;;;15.70;99.90;;;;;;7367751;19;20026;-61
2023/10/11 02:51:33;;;;;;;29.83;18.98;;;15.80;99.90;;;;;;7377206;19;20668;-65
2023/10/11 02:54:04;;;;;;;28.27;18.55;;;15.80;99.90;;;;;;7371838;19;20018;-66
2023/10/11 02:56:52;;;;;;;29.52;18.75;;;15.70;99.90;;;;;;7371592;19;20045;-65
2023/10/11 02:59:22;;;;;;;26.00;18.38;;;15.80;99.90;;;;;;7374324;19;20078;-66
2023/10/11 03:01:59;;;;;;;29.20;18.40;;;15.80;99.90;;;;;;7372553;19;20018;-66
2023/10/11 03:04:41;;;;;;;31.73;17.77;;;15.80;99.90;;;;;;7374252;19;20077;-66
2023/10/11 03:07:14;;;;;;;31.13;18.67;;;15.80;99.90;;;;;;7373833;19;20702;-65
2023/10/11 03:09:40;;;;;;;26.98;17.52;;;15.90;99.90;;;;;;7372252;19;20214;-66
2023/10/11 03:12:30;;;;;;;27.27;18.05;;;15.90;99.90;;;;;;7371493;19;20015;-67
2023/10/11 03:14:56;;;;;;;27.25;17.38;;;15.80;99.90;;;;;;7372800;19;20025;-66
2023/10/11 03:17:23;;;;;;;27.92;19.02;;;15.80;99.90;;;;;;7374999;19;20109;-66
2023/10/11 03:19:54;;;;;;;31.55;19.42;;;15.80;99.90;;;;;;7372978;19;20018;-67
2023/10/11 03:22:21;;;;;;;29.65;17.92;;;15.80;99.90;;;;;;7374108;19;20022;-66
2023/10/11 03:24:53;;;;;;;25.02;17.17;;;15.70;99.90;;;;;;7371803;19;20022;-66
2023/10/11 03:27:20;;;;;;;25.67;17.88;;;15.70;99.90;;;;;;7372859;19;20662;-66
2023/10/11 03:29:47;;;;;;;27.60;18.00;;;15.60;99.90;;;;;;7377427;19;20023;-67
2023/10/11 03:32:14;;;;;;;28.48;17.23;;;15.60;99.90;;;;;;7372066;19;20014;-66
2023/10/11 03:34:42;;;;;;;26.13;16.15;;;15.60;99.90;;;;;;7372732;19;20031;-66
2023/10/11 03:37:17;;;;;;;27.63;17.98;;;15.60;99.90;;;;;;7372903;19;20019;-65
2023/10/11 03:39:56;;;;;;;25.40;15.77;;;15.60;99.90;;;;;;7371305;19;20019;-66
2023/10/11 03:45:08;;;;;;;25.67;15.80;;;15.60;99.90;;;;;;7374475;19;20010;-66
2023/10/11 03:47:37;;;;;;;24.98;17.13;;;15.50;99.90;;;;;;7374681;19;20688;-66
2023/10/11 03:50:06;;;;;;;26.52;16.80;;;15.50;99.90;;;;;;7373346;19;20026;-66
2023/10/11 03:52:32;;;;;;;25.98;16.80;;;15.40;99.90;;;;;;7373364;19;20021;-65
2023/10/11 03:55:16;;;;;;;31.58;15.85;;;15.50;99.90;;;;;;7371485;19;20390;-65
2023/10/11 03:57:45;;;;;;;28.48;17.30;;;15.50;99.90;;;;;;7367691;19;20018;-65
2023/10/11 04:00:28;;;;;;;29.50;17.00;;;15.60;99.90;;;;;;7376536;19;20019;-65
2023/10/11 04:02:58;;;;;;;29.23;16.98;;;15.60;99.90;;;;;;7373858;19;20037;-65
2023/10/11 04:05:29;;;;;;;27.80;16.63;;;15.70;99.90;;;;;;7375179;19;20022;-66
2023/10/11 04:07:56;;;;;;;22.02;15.38;;;15.70;99.90;;;;;;7373846;19;20014;-66
2023/10/11 04:10:38;;;;;;;32.85;17.00;;;15.80;99.90;;;;;;7372043;19;20029;-66
2023/10/11 04:13:09;;;;;;;28.17;16.85;;;15.80;99.90;;;;;;7377029;19;20021;-65
2023/10/11 04:15:39;;;;;;;29.95;17.08;;;15.80;99.90;;;;;;7370410;19;20029;-64
2023/10/11 04:18:15;;;;;;;26.65;17.23;;;15.80;99.90;;;;;;7368606;19;20027;-65
2023/10/11 04:20:51;;;;;;;27.83;17.77;;;15.80;99.90;;;;;;7369316;19;20029;-62
2023/10/11 04:23:24;;;;;;;28.55;17.45;;;15.80;99.90;;;;;;7370477;19;20015;-61
2023/10/11 04:25:50;;;;;;;26.98;17.20;;;15.90;99.90;;;;;;7368919;19;20023;-62
2023/10/11 04:28:16;;;;;;;27.40;16.63;;;15.90;99.90;;;;;;7369955;19;20026;-61
2023/10/11 04:30:44;;;;;;;27.35;16.13;;;15.90;99.90;;;;;;7370129;19;20022;-61
2023/10/11 04:33:13;;;;;;;29.48;16.25;;;15.90;99.90;;;;;;7374649;19;20057;-62
2023/10/11 04:35:43;;;;;;;29.85;16.40;;;15.90;99.90;;;;;;7373998;19;21086;-67
2023/10/11 04:38:13;;;;;;;30.55;16.60;;;15.90;99.90;;;;;;7366977;19;20023;-64
2023/10/11 04:40:49;;;;;;;30.65;16.95;;;15.90;99.90;;;;;;7365049;19;20025;-65
2023/10/11 04:43:23;;;;;;;27.73;16.65;;;15.90;99.90;;;;;;7367621;19;20089;-64
2023/10/11 04:45:53;;;;;;;27.60;17.13;;;15.90;99.90;;;;;;7367467;19;20022;-62
2023/10/11 04:48:33;;;;;;;29.00;16.08;;;15.80;99.90;;;;;;7368424;19;20951;-62
2023/10/11 04:59:06;;;;;;;27.92;17.17;;;15.80;99.90;;;;;;7364362;19;20089;-65
2023/10/11 05:04:15;;;;;;;26.98;17.35;;;15.90;99.90;;;;;;7360039;19;20042;-65
2023/10/11 05:06:43;;;;;;;29.88;17.42;;;15.90;99.90;;;;;;7366255;19;21034;-62
2023/10/11 05:09:29;;;;;;;30.55;17.80;;;15.90;99.90;;;;;;7364562;19;20577;-66
2023/10/11 05:12:07;;;;;;;31.60;19.10;;;15.90;99.90;;;;;;7364544;19;20760;-65
2023/10/11 05:19:45;;;;;;;29.95;18.30;;;15.80;99.90;;;;;;7370786;19;20026;-62
2023/10/11 05:32:33;;;;;;;30.83;19.92;;;15.90;99.90;;;;;;7369968;19;20038;-65
2023/10/11 05:51:29;;;;;;;35.58;20.80;;;15.70;99.90;;;;;;7363132;19;20026;-61
2023/10/11 05:54:03;;;;;;;33.85;20.80;;;15.70;99.90;;;;;;7368136;19;20023;-67
2023/10/11 05:56:33;;;;;;;36.15;20.98;;;15.70;99.90;;;;;;7366223;19;20022;-63
2023/10/11 05:59:04;;;;;;;36.05;22.85;;;15.70;99.90;;;;;;7370695;19;20672;-64
2023/10/11 06:01:31;;;;;;;39.53;21.40;;;15.70;99.90;;;;;;7373642;19;20031;-64
2023/10/11 06:04:03;;;;;;;35.35;21.20;;;15.70;99.90;;;;;;7374119;19;20382;-62
2023/10/11 06:06:38;;;;;;;37.13;21.77;;;15.70;99.90;;;;;;7373152;19;20023;-61
2023/10/11 06:09:05;;;;;;;40.17;22.23;;;15.70;99.90;;;;;;7373016;19;20232;-61
2023/10/11 06:11:36;;;;;;;35.17;23.67;;;15.70;99.90;;;;;;7374978;19;20023;-61
2023/10/11 06:14:07;;;;;;;40.95;24.80;;;15.70;99.90;;;;;;7377212;19;20038;-60
2023/10/11 06:16:37;;;;;;;40.67;23.10;;;15.70;99.90;;;;;;7372225;19;20023;-63
2023/10/11 06:19:16;;;;;;;38.15;23.70;;;15.70;99.90;;;;;;7375679;19;20029;-63
2023/10/11 06:21:57;;;;;;;41.08;22.48;;;15.70;99.90;;;;;;7372146;19;20038;-65
2023/10/11 06:24:24;;;;;;;42.10;22.77;;;15.70;99.90;;;;;;7374246;19;20043;-64
2023/10/11 06:26:56;;;;;;;36.00;23.83;;;15.70;99.90;;;;;;7373554;19;20365;-64
2023/10/11 06:29:23;;;;;;;32.80;22.40;;;15.70;99.90;;;;;;7373597;19;20039;-64
2023/10/11 06:31:50;;;;;;;37.53;22.98;;;15.70;99.90;;;;;;7377561;19;20798;-65
2023/10/11 06:34:32;;;;;;;39.92;23.25;;;15.70;99.90;;;;;;7373935;19;20613;-65
2023/10/11 06:37:00;;;;;;;36.97;24.98;;;15.70;99.90;;;;;;7375983;19;20018;-63
2023/10/11 06:40:07;;;;;;;37.15;24.27;;;15.80;99.90;;;;;;7374574;19;20030;-61
2023/10/11 06:44:59;;;;;;;37.35;23.67;;;15.80;99.90;;;;;;7376585;19;20849;-64
2023/10/11 06:47:36;;;;;;;40.22;22.33;;;15.80;99.90;;;;;;7373627;19;20446;-62
2023/10/11 06:50:13;;;;;;;37.33;23.17;;;15.90;99.90;;;;;;7378217;19;20022;-62
2023/10/11 06:52:44;;;;;;;43.05;24.23;;;16.00;99.90;;;;;;7377055;19;20360;-64
2023/10/11 06:57:50;;;;;;;36.67;21.73;;;16.10;99.90;;;;;;7370445;19;20354;-64
2023/10/11 07:00:29;;;;;;;38.33;22.92;;;16.10;99.90;;;;;;7371398;19;20022;-63
2023/10/11 07:03:21;;;;;;;36.60;22.83;;;16.10;99.90;;;;;;7373112;19;20023;-64
2023/10/11 07:05:49;;;;;;;39.13;22.58;;;16.10;99.90;;;;;;7376698;19;20018;-64
2023/10/11 07:08:17;;;;;;;33.30;22.63;;;16.20;99.90;;;;;;7373840;19;20022;-61
2023/10/11 07:10:45;;;;;;;37.78;23.05;;;16.20;99.90;;;;;;7372271;19;20034;-60
2023/10/11 07:13:13;;;;;;;35.08;21.95;;;16.10;99.90;;;;;;7374782;19;20616;-60
2023/10/11 07:15:43;;;;;;;36.45;22.63;;;16.20;99.90;;;;;;7369326;19;20498;-61
2023/10/11 07:18:28;;;;;;;36.83;22.20;;;16.10;99.90;;;;;;7375436;19;20481;-61
2023/10/11 07:21:05;;;;;;;40.08;24.67;;;16.20;99.90;;;;;;7374298;19;20014;-60
2023/10/11 07:29:02;;;;;;;42.33;23.42;;;16.20;99.90;;;;;;7374169;19;20022;-65
2023/10/11 07:31:32;;;;;;;;;;;16.20;99.90;;;;;;7377336;19;20018;-65
2023/10/11 07:34:01;;;;;;;38.35;22.88;;;16.20;99.90;;;;;;7375462;19;19931;-65
2023/10/11 07:36:28;;;;;;;37.33;22.80;;;16.20;99.90;;;;;;7374374;19;20015;-61
2023/10/11 07:38:55;;;;;;;39.58;24.20;;;16.30;99.90;;;;;;7376652;19;20025;-60
2023/10/11 07:41:28;;;;;;;39.50;23.92;;;16.30;99.90;;;;;;7372173;19;20018;-60
2023/10/11 07:43:57;;;;;;;36.72;25.23;;;16.30;99.90;;;;;;7372065;19;20018;-60
2023/10/11 07:46:24;;;;;;;40.03;24.55;;;16.30;99.90;;;;;;7367666;19;20057;-66
2023/10/11 07:48:59;;;;;;;44.95;25.30;;;16.30;99.90;;;;;;7371838;19;20018;-65
2023/10/11 07:51:25;;;;;;;36.58;24.40;;;16.40;99.90;;;;;;7373156;19;20781;-64
2023/10/11 07:53:52;;;;;;;41.78;24.00;;;16.40;99.90;;;;;;7374396;19;20804;-65
2023/10/11 07:56:20;;;;;;;45.17;26.40;;;16.40;99.90;;;;;;7370590;19;20045;-60
2023/10/11 07:58:47;;;;;;;42.55;24.70;;;16.40;99.90;;;;;;7371610;19;20014;-60
2023/10/11 08:01:42;;;;;;;40.40;26.05;;;16.50;99.90;;;;;;7371211;19;20086;-59
2023/10/11 08:04:17;;;;;;;42.53;26.05;;;16.50;99.90;;;;;;7374561;19;20018;-61
2023/10/11 08:06:47;;;;;;;48.95;26.75;;;16.50;99.90;;;;;;7371627;19;20014;-60
2023/10/11 08:09:19;;;;;;;49.58;28.58;;;16.50;99.90;;;;;;7372313;19;20031;-59
2023/10/11 08:11:52;;;;;;;48.03;27.88;;;16.60;99.90;;;;;;7370680;19;20370;-60
2023/10/11 08:14:22;;;;;;;45.80;28.35;;;16.60;99.90;;;;;;7374928;19;20089;-60
2023/10/11 08:16:49;;;;;;;44.60;28.08;;;16.50;99.90;;;;;;7370766;19;20014;-60
2023/10/11 08:19:16;;;;;;;46.58;28.63;;;16.60;99.90;;;;;;7367785;19;20359;-60
2023/10/11 08:21:54;;;;;;;41.67;28.05;;;16.60;99.90;;;;;;7367346;19;20029;-60
2023/10/11 08:24:25;;;;;;;48.42;30.05;;;16.50;99.90;;;;;;7372263;19;20715;-60
2023/10/11 08:27:05;;;;;;;50.90;29.63;;;16.50;99.90;;;;;;7373704;19;20360;-60
2023/10/11 08:29:32;;;;;;;51.88;31.98;;;16.50;99.90;;;;;;7373673;19;20363;-59
2023/10/11 08:31:59;;;;;;;49.95;29.63;;;16.50;99.90;;;;;;7372876;19;20039;-59
2023/10/11 08:34:27;;;;;;;42.63;30.52;;;16.50;99.90;;;;;;7371246;19;20505;-59
2023/10/11 08:36:57;;;;;;;50.63;30.83;;;16.50;99.90;;;;;;7367428;19;20383;-59
2023/10/11 08:39:35;;;;;;;47.92;30.55;;;16.50;99.90;;;;;;7370794;19;20010;-61
2023/10/11 08:42:08;;;;;;;56.92;32.17;;;16.50;99.90;;;;;;7367435;19;20086;-60
2023/10/11 08:44:34;;;;;;;47.13;31.25;;;16.60;99.90;;;;;;7374237;19;20011;-60
2023/10/11 08:47:05;;;;;;;58.47;31.98;;;16.60;99.90;;;;;;7368949;19;20033;-60
2023/10/11 08:49:35;;;;;;;52.63;30.38;;;16.60;99.90;;;;;;7370779;19;20628;-60
2023/10/11 08:52:01;;;;;;;46.45;30.70;;;16.60;99.90;;;;;;7370335;19;20051;-62
2023/10/11 08:54:28;;;;;;;46.85;30.48;;;16.60;99.90;;;;;;7367963;19;20860;-62
2023/10/11 08:56:57;;;;;;;52.00;31.67;;;16.60;99.90;;;;;;7370085;19;20847;-61
2023/10/11 08:59:30;;;;;;;53.58;32.72;;;16.60;99.90;;;;;;7369274;19;20336;-61
2023/10/11 09:02:07;;;;;;;57.90;32.20;;;16.60;99.90;;;;;;7370505;19;20022;-61
2023/10/11 09:04:35;;;;;;;49.67;32.78;;;16.60;99.90;;;;;;7370491;19;20039;-62
2023/10/11 09:07:02;;;;;;;49.47;29.92;;;16.60;99.90;;;;;;7370622;19;20427;-67
2023/10/11 09:09:39;;;;;;;42.60;29.75;;;16.60;99.90;;;;;;7370130;19;20132;-62
2023/10/11 09:12:24;;;;;;;43.33;26.33;;;16.70;99.90;;;;;;7370917;19;20018;-62
2023/10/11 09:14:58;;;;;;;52.00;28.92;;;16.80;99.90;;;;;;7373704;19;20036;-60
2023/10/11 09:17:27;;;;;;;41.35;24.40;;;16.80;99.90;;;;;;7369688;19;20023;-61
2023/10/11 09:19:59;;;;;;;45.80;28.80;;;16.80;99.90;;;;;;7372567;19;20078;-62
2023/10/11 09:22:28;;;;;;;45.63;28.55;;;16.80;99.90;;;;;;7368383;19;20019;-60
2023/10/11 09:25:05;;;;;;;44.50;28.73;;;16.90;99.90;;;;;;7375734;19;20010;-61
2023/10/11 09:27:54;;;;;;;45.40;27.08;;;16.90;99.90;;;;;;7370971;19;20019;-65
2023/10/11 09:30:21;;;;;;;46.33;27.38;;;17.00;99.90;;;;;;7369001;19;20023;-63
2023/10/11 09:32:59;;;;;;;40.33;26.17;;;17.00;99.90;;;;;;7378094;19;20026;-61
2023/10/11 09:35:29;;;;;;;39.55;24.50;;;17.10;99.90;;;;;;7380955;19;20017;-66
2023/10/11 09:37:57;;;;;;;37.92;25.10;;;17.20;99.90;;;;;;7381427;19;20018;-66
2023/10/11 09:40:31;;;;;;;40.55;23.23;;;17.20;99.90;;;;;;7377300;19;20026;-66
2023/10/11 09:43:00;;;;;;;43.58;23.70;;;17.20;99.90;;;;;;7380097;19;20086;-61
2023/10/11 09:45:41;;;;;;;34.50;22.83;;;17.20;99.90;;;;;;7372514;19;20585;-66
2023/10/11 09:48:10;;;;;;;35.30;21.35;;;17.20;99.90;;;;;;7375429;19;20653;-66
2023/10/11 09:50:41;;;;;;;35.08;21.08;;;17.20;99.90;;;;;;7376404;19;20588;-66
2023/10/11 09:53:14;;;;;;;35.45;19.60;;;17.30;99.90;;;;;;7378757;19;20010;-67
2023/10/11 09:56:04;;;;;;;37.67;19.20;;;17.30;99.90;;;;;;7376390;19;20078;-66
2023/10/11 09:58:41;;;;;;;27.95;18.65;;;17.30;99.90;;;;;;7374541;19;20461;-66
2023/10/11 10:01:19;;;;;;;27.17;18.70;;;17.40;99.90;;;;;;7376016;19;20772;-66
2023/10/11 10:03:47;;;;;;;35.88;25.15;;;17.40;99.90;;;;;;7378202;19;20471;-60
2023/10/11 10:06:21;;;;;;;29.42;16.52;;;17.40;99.90;;;;;;7374742;19;20018;-60
2023/10/11 10:12:20;;;;;;;27.98;16.40;;;17.40;99.90;;;;;;7373910;19;20031;-60
2023/10/11 10:14:50;;;;;;;27.45;14.75;;;17.50;99.90;;;;;;7376780;19;20021;-60
2023/10/11 10:17:17;;;;;;;22.10;13.15;;;17.50;99.90;;;;;;7373204;19;20102;-60
2023/10/11 10:19:45;;;;;;;17.25;10.00;;;17.70;99.90;;;;;;7375403;19;20857;-60
2023/10/11 10:22:22;;;;;;;17.50;10.02;;;17.90;99.90;;;;;;7373883;19;20035;-61
2023/10/11 10:24:55;;;;;;;18.55;9.95;;;18.00;99.90;;;;;;7378643;19;20090;-61
2023/10/11 10:27:45;;;;;;;21.42;10.00;;;18.20;99.90;;;;;;7371955;19;20021;-61
2023/10/11 10:30:16;;;;;;;19.33;8.55;;;18.20;99.90;;;;;;7371398;19;20023;-61
2023/10/11 10:33:21;;;;;;;20.40;9.00;;;18.30;99.90;;;;;;7376943;19;20022;-61
2023/10/11 10:35:48;;;;;;;16.67;7.50;;;18.40;99.90;;;;;;7376247;19;20676;-61
2023/10/11 10:38:15;;;;;;;13.18;7.22;;;18.50;99.90;;;;;;7372228;19;20018;-61
2023/10/11 10:40:45;;;;;;;15.68;7.60;;;18.50;99.90;;;;;;7374805;19;20494;-60
2023/10/11 10:43:24;;;;;;;17.33;7.10;;;18.50;99.90;;;;;;7370746;19;20031;-62
2023/10/11 10:45:51;;;;;;;15.95;7.93;;;18.60;99.90;;;;;;7372933;19;20067;-61
2023/10/11 10:48:24;;;;;;;15.38;7.47;;;18.70;99.90;;;;;;7376593;19;20497;-60
2023/10/11 10:51:04;;;;;;;18.15;7.85;;;18.70;99.90;;;;;;7372459;19;20041;-60
2023/10/11 10:53:42;;;;;;;13.73;8.75;;;18.70;99.90;;;;;;7371980;19;20035;-60
2023/10/11 10:56:24;;;;;;;18.90;8.68;;;18.70;99.90;;;;;;7372999;19;20018;-63
2023/10/11 10:59:12;;;;;;;20.77;14.30;;;18.80;99.90;;;;;;7372839;19;20781;-61
2023/10/11 11:01:38;;;;;;;21.85;15.32;;;19.00;99.90;;;;;;7375681;19;20471;-60
2023/10/11 11:04:08;;;;;;;12.65;7.70;;;19.50;99.90;;;;;;7371400;19;20036;-66
2023/10/11 11:06:41;;;;;;;55.55;49.90;;;19.70;99.90;;;;;;7373758;19;21536;-66
2023/10/11 11:09:19;;;;;;;67.60;60.45;;;20.00;99.90;;;;;;7369958;19;20010;-61
2023/10/11 11:11:48;;;;;;;28.30;21.02;;;20.10;99.90;;;;;;7371947;19;20073;-62
2023/10/11 11:14:19;;;;;;;14.82;7.38;;;20.20;99.90;;;;;;7371591;19;20021;-61
2023/10/11 11:17:07;;;;;;;18.17;8.10;;;20.10;99.90;;;;;;7370352;19;20372;-61
2023/10/11 11:19:34;;;;;;;11.43;6.32;;;20.10;99.90;;;;;;7376777;19;20014;-62
2023/10/11 11:22:12;;;;;;;9.68;5.18;;;20.00;99.90;;;;;;7372511;19;20730;-61
2023/10/11 11:24:41;;;;;;;10.65;6.43;;;20.10;99.90;;;;;;7376496;19;20029;-61
2023/10/11 11:27:18;;;;;;;10.25;5.38;;;20.20;99.90;;;;;;7371251;19;20030;-61
2023/10/11 11:29:49;;;;;;;11.13;5.53;;;20.30;99.90;;;;;;7373322;19;20020;-61
2023/10/11 11:32:17;;;;;;;8.38;5.28;;;20.40;99.90;;;;;;7375412;19;20022;-65
2023/10/11 11:35:03;;;;;;;13.60;5.82;;;20.60;99.90;;;;;;7374264;19;20015;-65
2023/10/11 11:37:30;;;;;;;16.60;5.53;;;20.50;99.90;;;;;;7374620;19;20119;-65
2023/10/11 11:40:19;;;;;;;11.40;5.00;;;20.30;99.90;;;;;;7370740;19;20018;-64
2023/10/11 11:42:48;;;;;;;8.82;5.05;;;20.20;99.90;;;;;;7368358;19;20385;-65
2023/10/11 11:45:17;;;;;;;11.25;5.13;;;20.20;99.90;;;;;;7372547;19;20107;-64
2023/10/11 11:47:56;;;;;;;10.43;4.28;;;20.10;99.90;;;;;;7371004;19;20026;-64
2023/10/11 11:50:31;;;;;;;10.45;5.18;;;20.10;99.90;;;;;;7371763;19;20018;-63
2023/10/11 11:52:58;;;;;;;7.68;4.07;;;20.20;99.90;;;;;;7371227;19;20018;-61
2023/10/11 11:55:24;;;;;;;10.45;4.75;;;20.40;99.90;;;;;;7369355;19;20018;-61
2023/10/11 11:57:53;;;;;;;8.48;4.47;;;20.50;99.90;;;;;;7369951;19;20633;-61
2023/10/11 12:02:54;;;;;;;122.57;105.40;;;20.20;99.90;;;;;;7370865;19;20057;-61
2023/10/11 12:05:21;;;;;;;9.27;5.82;;;20.30;99.90;;;;;;7368684;19;20055;-61
2023/10/11 12:07:52;;;;;;;9.02;4.85;;;20.30;99.90;;;;;;7370337;19;20026;-61
2023/10/11 12:10:24;;;;;;;8.20;5.90;;;20.30;99.90;;;;;;7366056;19;20798;-60
2023/10/11 12:12:55;;;;;;;13.35;7.57;;;20.20;99.90;;;;;;7370917;19;20022;-61
2023/10/11 12:15:21;;;;;;;29.98;25.05;;;20.00;99.90;;;;;;7372095;19;20718;-65
2023/10/11 12:17:54;;;;;;;13.73;8.98;;;20.00;99.90;;;;;;7374967;19;20013;-61
2023/10/11 12:20:32;;;;;;;17.63;10.95;;;20.10;99.90;;;;;;7367018;19;20474;-61
2023/10/11 12:23:07;;;;;;;24.70;16.77;;;20.40;99.90;;;;;;7372796;19;20086;-62
2023/10/11 12:25:35;;;;;;;8.85;4.95;;;20.50;99.90;;;;;;7372578;19;20029;-63
2023/10/11 12:28:04;;;;;;;12.90;5.95;;;20.40;99.90;;;;;;7368152;19;20691;-61
2023/10/11 12:30:36;;;;;;;11.43;5.82;;;20.30;99.90;;;;;;7365280;19;20045;-62
2023/10/11 12:33:06;;;;;;;10.70;4.97;;;20.20;99.90;;;;;;7364786;19;20511;-62
2023/10/11 12:35:39;;;;;;;13.63;5.47;;;20.20;99.90;;;;;;7368385;19;20037;-62
2023/10/11 12:38:12;;;;;;;12.98;6.07;;;20.20;99.90;;;;;;7368391;19;20352;-62
2023/10/11 12:40:44;;;;;;;10.88;5.28;;;20.30;99.90;;;;;;7372273;19;20011;-61
2023/10/11 12:43:11;;;;;;;16.10;11.05;;;20.30;99.90;;;;;;7369207;19;20015;-61
2023/10/11 12:45:44;;;;;;;10.45;5.10;;;20.40;99.90;;;;;;7373029;19;20014;-62
2023/10/11 12:48:10;;;;;;;8.68;4.20;;;20.90;99.90;;;;;;7367216;19;20556;-62
2023/10/11 12:50:37;;;;;;;7.82;3.42;;;21.40;99.90;;;;;;7372206;19;20013;-62
2023/10/11 12:53:13;;;;;;;14.70;11.18;;;21.90;99.90;;;;;;7370733;19;20054;-64
2023/10/11 12:55:50;;;;;;;13.27;9.13;;;22.90;99.90;;;;;;7369961;19;20019;-63
2023/10/11 12:58:19;;;;;;;13.98;8.85;;;22.70;99.90;;;;;;7371155;19;20432;-62
2023/10/11 13:00:51;;;;;;;13.02;10.75;;;22.30;99.90;;;;;;7370314;19;20018;-62
2023/10/11 13:03:35;;;;;;;16.55;9.05;;;22.10;99.90;;;;;;7366844;19;20605;-64
2023/10/11 13:06:03;;;;;;;11.88;7.60;;;21.80;99.90;;;;;;7368078;19;20014;-63
2023/10/11 13:08:32;;;;;;;11.88;5.72;;;21.40;99.90;;;;;;7374427;19;20102;-62
2023/10/11 13:11:00;;;;;;;11.45;5.50;;;21.20;99.90;;;;;;7372023;19;20089;-62
2023/10/11 13:13:29;;;;;;;9.30;6.25;;;20.90;99.90;;;;;;7375674;19;20018;-64
2023/10/11 13:16:03;;;;;;;8.90;5.47;;;20.80;99.90;;;;;;7377148;19;20026;-64
2023/10/11 13:18:37;;;;;;;10.38;4.53;;;20.60;99.90;;;;;;7380684;19;20060;-61
2023/10/11 13:21:16;;;;;;;9.63;5.13;;;20.50;99.90;;;;;;7378467;19;20018;-62
2023/10/11 13:23:46;;;;;;;9.52;4.18;;;20.40;99.90;;;;;;7379332;19;20384;-61
2023/10/11 13:26:18;;;;;;;13.93;7.57;;;20.30;99.90;;;;;;7380693;19;20018;-62
2023/10/11 13:28:48;;;;;;;9.05;5.07;;;20.30;99.90;;;;;;7375047;19;20022;-61
2023/10/11 13:31:17;;;;;;;10.27;6.50;;;20.20;99.90;;;;;;7377225;19;20014;-62
2023/10/11 13:33:43;;;;;;;9.80;4.40;;;20.20;99.90;;;;;;7370937;19;20118;-60
2023/10/11 13:36:12;;;;;;;21.67;11.40;;;20.20;99.90;;;;;;7379013;19;20010;-62
2023/10/11 13:38:44;;;;;;;9.77;6.10;;;20.10;99.90;;;;;;7376340;19;20015;-63
2023/10/11 13:41:12;;;;;;;8.95;4.07;;;20.10;99.90;;;;;;7369314;19;20460;-62
2023/10/11 13:43:39;;;;;;;9.18;4.60;;;20.10;99.90;;;;;;7373583;19;20126;-63
2023/10/11 13:46:07;;;;;;;13.80;10.15;;;20.20;99.90;;;;;;7375742;19;20018;-66
2023/10/11 13:48:37;;;;;;;9.98;6.43;;;20.20;99.90;;;;;;7372105;19;20549;-62
2023/10/11 13:51:06;;;;;;;16.10;9.98;;;20.40;99.90;;;;;;7376342;19;20474;-62
2023/10/11 13:53:41;;;;;;;11.35;6.20;;;20.80;99.90;;;;;;7372564;19;20623;-62
2023/10/11 13:56:21;;;;;;;12.18;6.28;;;21.50;99.90;;;;;;7375737;19;20014;-62